sensor_id;sensor_type;location;lat;lon;timestamp;pressure;altitude;pressure_sealevel;temperature;humidity
22582;BME280;47125;48.542;9.052;2023-01-28T00:06:07;96489.41;;;1.21;80.29
22582;BME280;47125;48.542;9.052;2023-01-28T00:16:11;96476.25;;;1.21;79.94
22582;BME280;47125;48.542;9.052;2023-01-28T00:26:13;96474.47;;;0.97;80.59
22582;BME280;47125;48.542;9.052;2023-01-28T00:36:18;96472.94;;;1.27;79.69
22582;BME280;47125;48.542;9.052;2023-01-28T00:46:21;96464.16;;;0.95;79.99
22582;BME280;47125;48.542;9.052;2023-01-28T00:56:25;96454.94;;;0.91;80.49
22582;BME280;47125;48.542;9.052;2023-01-28T01:06:28;96465.63;;;0.98;79.87
22582;BME280;47125;48.542;9.052;2023-01-28T01:16:32;96470.38;;;0.78;80.47
22582;BME280;47125;48.542;9.052;2023-01-28T01:26:36;96476.63;;;1.01;80.13
22582;BME280;47125;48.542;9.052;2023-01-28T01:36:40;96473.03;;;0.86;81.14
22582;BME280;47125;48.542;9.052;2023-01-28T01:46:44;96476.47;;;0.87;81.95
22582;BME280;47125;48.542;9.052;2023-01-28T01:56:49;96483.88;;;0.51;82.59
22582;BME280;47125;48.542;9.052;2023-01-28T02:06:52;96492.41;;;1.01;81.45
22582;BME280;47125;48.542;9.052;2023-01-28T02:16:56;96487.31;;;0.92;80.87
22582;BME280;47125;48.542;9.052;2023-01-28T02:27:03;96493.69;;;1.05;80.43
22582;BME280;47125;48.542;9.052;2023-01-28T02:37:14;96488.13;;;0.76;80.37
22582;BME280;47125;48.542;9.052;2023-01-28T02:47:18;96490.75;;;1.00;80.48
22582;BME280;47125;48.542;9.052;2023-01-28T02:57:41;96486.63;;;1.06;81.23
22582;BME280;47125;48.542;9.052;2023-01-28T03:07:47;96491.91;;;0.98;81.99
22582;BME280;47125;48.542;9.052;2023-01-28T03:17:53;96495.03;;;1.01;81.50
22582;BME280;47125;48.542;9.052;2023-01-28T03:28:15;96496.00;;;1.17;81.25
22582;BME280;47125;48.542;9.052;2023-01-28T03:38:39;96505.06;;;0.98;81.33
22582;BME280;47125;48.542;9.052;2023-01-28T03:48:43;96511.78;;;0.84;81.89
22582;BME280;47125;48.542;9.052;2023-01-28T03:58:47;96517.69;;;0.94;81.58
22582;BME280;47125;48.542;9.052;2023-01-28T04:08:56;96520.66;;;1.07;81.45
22582;BME280;47125;48.542;9.052;2023-01-28T04:19:01;96523.47;;;1.14;80.97
22582;BME280;47125;48.542;9.052;2023-01-28T04:29:04;96525.25;;;1.05;81.26
22582;BME280;47125;48.542;9.052;2023-01-28T04:39:07;96538.59;;;0.96;81.53
22582;BME280;47125;48.542;9.052;2023-01-28T04:49:10;96547.94;;;1.06;81.91
22582;BME280;47125;48.542;9.052;2023-01-28T04:59:14;96556.16;;;1.11;81.97
22582;BME280;47125;48.542;9.052;2023-01-28T05:09:16;96552.72;;;1.11;81.75
22582;BME280;47125;48.542;9.052;2023-01-28T05:19:20;96554.03;;;1.07;81.84
22582;BME280;47125;48.542;9.052;2023-01-28T05:29:22;96555.31;;;1.27;81.78
22582;BME280;47125;48.542;9.052;2023-01-28T05:39:26;96553.06;;;1.08;81.81
22582;BME280;47125;48.542;9.052;2023-01-28T05:49:29;96561.41;;;1.28;81.57
22582;BME280;47125;48.542;9.052;2023-01-28T05:59:32;96572.09;;;1.34;81.09
22582;BME280;47125;48.542;9.052;2023-01-28T06:09:35;96579.69;;;1.05;82.07
22582;BME280;47125;48.542;9.052;2023-01-28T06:19:39;96592.47;;;1.32;81.60
22582;BME280;47125;48.542;9.052;2023-01-28T06:29:41;96599.25;;;1.35;81.56
22582;BME280;47125;48.542;9.052;2023-01-28T06:39:45;96606.78;;;1.30;81.78
22582;BME280;47125;48.542;9.052;2023-01-28T06:49:47;96629.16;;;1.34;82.36
22582;BME280;47125;48.542;9.052;2023-01-28T06:59:51;96626.19;;;1.21;82.71
22582;BME280;47125;48.542;9.052;2023-01-28T07:09:54;96634.94;;;1.29;82.65
22582;BME280;47125;48.542;9.052;2023-01-28T07:19:57;96630.13;;;1.25;83.17
22582;BME280;47125;48.542;9.052;2023-01-28T07:30:00;96642.47;;;1.24;83.01
22582;BME280;47125;48.542;9.052;2023-01-28T07:40:04;96653.47;;;1.03;83.72
22582;BME280;47125;48.542;9.052;2023-01-28T07:50:08;96659.25;;;1.31;83.10
22582;BME280;47125;48.542;9.052;2023-01-28T08:00:12;96669.91;;;1.30;83.05
22582;BME280;47125;48.542;9.052;2023-01-28T08:10:16;96679.63;;;1.53;82.12
22582;BME280;47125;48.542;9.052;2023-01-28T08:20:20;96685.56;;;1.39;82.68
22582;BME280;47125;48.542;9.052;2023-01-28T08:30:22;96685.72;;;1.46;82.27
22582;BME280;47125;48.542;9.052;2023-01-28T08:40:26;96691.97;;;1.29;82.17
22582;BME280;47125;48.542;9.052;2023-01-28T08:50:29;96703.00;;;1.81;80.87
22582;BME280;47125;48.542;9.052;2023-01-28T09:00:36;96709.09;;;1.57;81.56
22582;BME280;47125;48.542;9.052;2023-01-28T09:10:39;96710.75;;;1.74;80.80
22582;BME280;47125;48.542;9.052;2023-01-28T09:20:43;96725.69;;;1.65;80.42
22582;BME280;47125;48.542;9.052;2023-01-28T09:30:46;96724.72;;;1.91;80.11
22582;BME280;47125;48.542;9.052;2023-01-28T09:40:50;96727.69;;;2.04;79.36
22582;BME280;47125;48.542;9.052;2023-01-28T09:50:53;96735.09;;;2.00;79.70
22582;BME280;47125;48.542;9.052;2023-01-28T10:00:58;96749.06;;;2.09;78.74
22582;BME280;47125;48.542;9.052;2023-01-28T10:11:05;96735.03;;;2.33;78.05
22582;BME280;47125;48.542;9.052;2023-01-28T10:21:14;96738.97;;;2.45;76.46
22582;BME280;47125;48.542;9.052;2023-01-28T10:31:19;96737.50;;;2.42;75.43
22582;BME280;47125;48.542;9.052;2023-01-28T10:41:23;96731.97;;;2.76;74.55
22582;BME280;47125;48.542;9.052;2023-01-28T10:51:30;96724.81;;;2.38;74.64
22582;BME280;47125;48.542;9.052;2023-01-28T11:01:42;96718.88;;;2.52;75.19
22582;BME280;47125;48.542;9.052;2023-01-28T11:11:45;96731.59;;;2.87;74.28
22582;BME280;47125;48.542;9.052;2023-01-28T11:21:49;96717.38;;;2.57;73.45
22582;BME280;47125;48.542;9.052;2023-01-28T11:31:52;96732.50;;;2.63;73.40
22582;BME280;47125;48.542;9.052;2023-01-28T11:42:05;96730.81;;;2.78;72.62
22582;BME280;47125;48.542;9.052;2023-01-28T11:52:13;96736.59;;;2.66;73.90
22582;BME280;47125;48.542;9.052;2023-01-28T12:02:23;96731.22;;;2.51;75.55
22582;BME280;47125;48.542;9.052;2023-01-28T12:12:37;96728.03;;;2.72;74.59
22582;BME280;47125;48.542;9.052;2023-01-28T12:33:11;96726.13;;;2.42;76.27
22582;BME280;47125;48.542;9.052;2023-01-28T12:43:19;96722.56;;;2.10;77.58
22582;BME280;47125;48.542;9.052;2023-01-28T12:53:24;96736.38;;;2.37;77.51
22582;BME280;47125;48.542;9.052;2023-01-28T13:03:30;96723.53;;;2.34;78.11
22582;BME280;47125;48.542;9.052;2023-01-28T13:13:38;96728.63;;;2.27;79.17
22582;BME280;47125;48.542;9.052;2023-01-28T13:23:43;96729.75;;;2.49;77.81
22582;BME280;47125;48.542;9.052;2023-01-28T13:33:59;96731.59;;;2.40;77.99
22582;BME280;47125;48.542;9.052;2023-01-28T13:44:01;96730.25;;;2.44;78.87
22582;BME280;47125;48.542;9.052;2023-01-28T13:54:06;96737.03;;;2.22;79.39
22582;BME280;47125;48.542;9.052;2023-01-28T14:04:29;96728.72;;;2.58;79.57
22582;BME280;47125;48.542;9.052;2023-01-28T14:14:44;96742.19;;;2.71;77.44
22582;BME280;47125;48.542;9.052;2023-01-28T14:24:55;96755.56;;;2.61;76.94
22582;BME280;47125;48.542;9.052;2023-01-28T14:35:06;96771.28;;;2.31;78.58
22582;BME280;47125;48.542;9.052;2023-01-28T14:45:13;96770.63;;;2.20;79.33
22582;BME280;47125;48.542;9.052;2023-01-28T14:55:26;96767.84;;;2.06;79.44
22582;BME280;47125;48.542;9.052;2023-01-28T15:05:31;96781.66;;;2.32;78.51
22582;BME280;47125;48.542;9.052;2023-01-28T15:15:36;96796.50;;;2.09;80.46
22582;BME280;47125;48.542;9.052;2023-01-28T15:25:39;96798.78;;;2.36;80.64
22582;BME280;47125;48.542;9.052;2023-01-28T15:35:46;96816.41;;;2.11;80.73
22582;BME280;47125;48.542;9.052;2023-01-28T15:45:51;96828.25;;;2.07;82.05
22582;BME280;47125;48.542;9.052;2023-01-28T15:56:03;96847.84;;;2.05;81.22
22582;BME280;47125;48.542;9.052;2023-01-28T16:06:06;96845.72;;;2.08;81.22
22582;BME280;47125;48.542;9.052;2023-01-28T16:16:11;96840.09;;;1.95;81.48
22582;BME280;47125;48.542;9.052;2023-01-28T16:26:19;96851.00;;;2.00;81.18
22582;BME280;47125;48.542;9.052;2023-01-28T16:36:26;96874.06;;;2.31;80.54
22582;BME280;47125;48.542;9.052;2023-01-28T16:46:31;96876.84;;;2.13;80.61
22582;BME280;47125;48.542;9.052;2023-01-28T16:56:35;96871.56;;;2.05;81.18
22582;BME280;47125;48.542;9.052;2023-01-28T17:06:47;96877.84;;;2.20;80.88
22582;BME280;47125;48.542;9.052;2023-01-28T17:16:51;96875.16;;;1.96;81.46
22582;BME280;47125;48.542;9.052;2023-01-28T17:26:55;96877.34;;;2.00;81.14
22582;BME280;47125;48.542;9.052;2023-01-28T17:36:59;96891.28;;;1.85;81.34
22582;BME280;47125;48.542;9.052;2023-01-28T17:47:01;96902.00;;;1.99;79.51
22582;BME280;47125;48.542;9.052;2023-01-28T17:57:08;96909.28;;;2.05;79.57
22582;BME280;47125;48.542;9.052;2023-01-28T18:07:11;96903.59;;;1.76;80.57
22582;BME280;47125;48.542;9.052;2023-01-28T18:17:15;96914.22;;;2.16;78.87
22582;BME280;47125;48.542;9.052;2023-01-28T18:27:18;96914.22;;;2.00;78.77
22582;BME280;47125;48.542;9.052;2023-01-28T18:37:24;96931.50;;;2.11;78.22
22582;BME280;47125;48.542;9.052;2023-01-28T18:47:27;96923.97;;;3.99;86.25
22582;BME280;47125;48.542;9.052;2023-01-28T18:57:30;96914.25;;;2.41;77.13
22582;BME280;47125;48.542;9.052;2023-01-28T19:07:33;96923.16;;;2.40;77.38
22582;BME280;47125;48.542;9.052;2023-01-28T19:17:37;96933.84;;;2.22;77.95
22582;BME280;47125;48.542;9.052;2023-01-28T19:27:39;96944.16;;;2.07;78.77
22582;BME280;47125;48.542;9.052;2023-01-28T19:37:43;96944.22;;;2.23;77.98
22582;BME280;47125;48.542;9.052;2023-01-28T19:47:46;96924.59;;;2.18;78.00
22582;BME280;47125;48.542;9.052;2023-01-28T19:57:50;96935.44;;;1.99;78.78
22582;BME280;47125;48.542;9.052;2023-01-28T20:07:52;96935.91;;;1.86;79.27
22582;BME280;47125;48.542;9.052;2023-01-28T20:17:56;96941.19;;;2.02;78.41
22582;BME280;47125;48.542;9.052;2023-01-28T20:27:58;96944.97;;;2.00;78.59
22582;BME280;47125;48.542;9.052;2023-01-28T20:38:03;96955.19;;;2.03;78.22
22582;BME280;47125;48.542;9.052;2023-01-28T20:48:05;96963.81;;;2.13;77.83
22582;BME280;47125;48.542;9.052;2023-01-28T20:58:09;96973.31;;;2.06;77.78
22582;BME280;47125;48.542;9.052;2023-01-28T21:08:13;96993.25;;;2.08;78.55
22582;BME280;47125;48.542;9.052;2023-01-28T21:18:17;97002.91;;;1.92;78.03
22582;BME280;47125;48.542;9.052;2023-01-28T21:28:20;96998.97;;;1.96;78.80
22582;BME280;47125;48.542;9.052;2023-01-28T21:38:23;96992.63;;;1.81;78.71
22582;BME280;47125;48.542;9.052;2023-01-28T21:48:26;96994.00;;;1.85;78.83
22582;BME280;47125;48.542;9.052;2023-01-28T21:58:30;96993.84;;;1.86;78.05
22582;BME280;47125;48.542;9.052;2023-01-28T22:08:50;96997.91;;;1.81;78.71
22582;BME280;47125;48.542;9.052;2023-01-28T22:18:54;96995.66;;;1.94;78.20
22582;BME280;47125;48.542;9.052;2023-01-28T22:28:56;96995.47;;;1.87;78.23
22582;BME280;47125;48.542;9.052;2023-01-28T22:39:00;96999.13;;;1.86;78.13
22582;BME280;47125;48.542;9.052;2023-01-28T22:49:03;96994.63;;;1.79;77.50
22582;BME280;47125;48.542;9.052;2023-01-28T22:59:08;96993.59;;;1.72;77.26
22582;BME280;47125;48.542;9.052;2023-01-28T23:09:10;96989.34;;;1.79;77.50
22582;BME280;47125;48.542;9.052;2023-01-28T23:19:14;97000.41;;;1.90;77.46
22582;BME280;47125;48.542;9.052;2023-01-28T23:29:35;97005.31;;;1.77;77.04
22582;BME280;47125;48.542;9.052;2023-01-28T23:39:39;97002.41;;;1.88;76.63
22582;BME280;47125;48.542;9.052;2023-01-28T23:49:41;96989.34;;;1.79;76.44
22582;BME280;47125;48.542;9.052;2023-01-28T23:59:45;97001.06;;;1.84;76.54
